Time,TemperatureF,DewpointF,PressureIn,WindDirection,WindDirectionDegrees,WindSpeedMPH,WindSpeedGustMPH,Humidity,HourlyPrecipIn,Conditions,Clouds,dailyrainin,SoftwareType,DateUTC
2013-01-15 00:00:00,37.1,32.4,30.18,NNW,338,0.0,0.0,83,0.00,,,0.00,WUHU216HW,2013-01-15 08:00:00,
2013-01-15 00:05:00,37.1,32.4,30.18,NNW,338,0.0,0.0,83,0.00,,,0.00,WUHU216HW,2013-01-15 08:05:00,
2013-01-15 00:59:00,37.1,32.4,30.19,NNE,23,0.4,0.4,83,0.00,,,0.00,WUHU216HW,2013-01-15 08:59:00,
2013-01-15 01:00:00,37.1,32.4,30.19,NNE,23,0.4,0.4,83,0.00,,,0.00,WUHU216HW,2013-01-15 09:00:00,
2013-01-15 01:05:00,37.1,32.4,30.19,NNE,23,0.4,0.4,83,0.00,,,0.00,WUHU216HW,2013-01-15 09:05:00,
2013-01-15 01:59:00,37.1,32.7,30.21,NNE,23,0.0,0.0,84,0.00,,,0.00,WUHU216HW,2013-01-15 09:59:00,
2013-01-15 02:00:00,37.1,32.7,30.21,NNE,23,0.0,0.0,84,0.00,,,0.00,WUHU216HW,2013-01-15 10:00:00,
2013-01-15 02:05:00,37.1,32.7,30.21,NNE,23,0.0,0.0,84,0.00,,,0.00,WUHU216HW,2013-01-15 10:05:00,
2013-01-15 02:59:00,37.1,32.7,30.23,North,0,0.0,0.0,84,0.00,,,0.00,WUHU216HW,2013-01-15 10:59:00,
2013-01-15 03:00:00,37.1,32.7,30.23,North,0,0.0,0.0,84,0.00,,,0.00,WUHU216HW,2013-01-15 11:00:00,
2013-01-15 03:05:00,37.1,32.7,30.23,North,0,0.0,0.0,84,0.00,,,0.00,WUHU216HW,2013-01-15 11:05:00,
2013-01-15 03:59:00,35.6,31.2,30.23,North,0,0.0,0.0,84,0.00,,,0.00,WUHU216HW,2013-01-15 11:59:00,
2013-01-15 04:00:00,35.6,31.2,30.23,North,0,0.0,0.0,84,0.00,,,0.00,WUHU216HW,2013-01-15 12:00:00,
2013-01-15 04:05:00,35.6,31.2,30.23,North,0,0.0,0.0,84,0.00,,,0.00,WUHU216HW,2013-01-15 12:05:00,
2013-01-15 04:59:00,35.5,31.1,30.24,North,0,0.0,0.0,84,0.00,,,0.00,WUHU216HW,2013-01-15 12:59:00,
2013-01-15 05:00:00,35.5,31.1,30.24,North,0,0.0,0.0,84,0.00,,,0.00,WUHU216HW,2013-01-15 13:00:00,
2013-01-15 05:05:00,35.5,31.1,30.24,North,0,0.0,0.0,84,0.00,,,0.00,WUHU216HW,2013-01-15 13:05:00,
2013-01-15 05:59:00,36.2,32.3,30.25,North,0,0.0,0.0,86,0.00,,,0.00,WUHU216HW,2013-01-15 13:59:00,
2013-01-15 06:00:00,36.2,32.3,30.25,North,0,0.0,0.0,86,0.00,,,0.00,WUHU216HW,2013-01-15 14:00:00,
2013-01-15 06:05:00,36.2,32.3,30.25,North,0,0.0,0.0,86,0.00,,,0.00,WUHU216HW,2013-01-15 14:05:00,
2013-01-15 07:00:00,36.2,32.3,30.27,North,0,0.0,0.0,86,0.00,,,0.00,WUHU216HW,2013-01-15 15:00:00,
2013-01-15 07:05:00,36.2,32.3,30.27,North,0,0.0,0.0,86,0.00,,,0.00,WUHU216HW,2013-01-15 15:05:00,
2013-01-15 07:10:00,36.2,32.3,30.27,North,0,0.0,0.0,86,0.00,,,0.00,WUHU216HW,2013-01-15 15:10:00,
2013-01-15 07:15:00,36.2,32.3,30.27,North,0,0.0,0.0,86,0.00,,,0.00,WUHU216HW,2013-01-15 15:15:00,
2013-01-15 07:20:00,36.2,32.3,30.28,North,0,0.0,0.0,86,0.00,,,0.00,WUHU216HW,2013-01-15 15:20:00,
2013-01-15 07:25:00,36.2,32.6,30.28,North,0,0.0,0.0,87,0.00,,,0.00,WUHU216HW,2013-01-15 15:25:00,
2013-01-15 07:30:00,36.2,32.6,30.28,North,0,0.0,0.0,87,0.00,,,0.00,WUHU216HW,2013-01-15 15:30:00,
2013-01-15 07:35:00,36.2,32.6,30.28,North,0,0.0,0.0,87,0.00,,,0.00,WUHU216HW,2013-01-15 15:35:00,
2013-01-15 07:40:00,36.2,32.6,30.29,North,0,0.0,0.0,87,0.00,,,0.00,WUHU216HW,2013-01-15 15:40:00,
2013-01-15 07:45:00,36.0,32.4,30.29,North,0,0.0,0.0,87,0.00,,,0.00,WUHU216HW,2013-01-15 15:45:00,
2013-01-15 07:50:00,36.0,32.4,30.29,North,0,0.0,0.0,87,0.00,,,0.00,WUHU216HW,2013-01-15 15:50:00,
2013-01-15 07:55:00,36.0,32.4,30.29,North,0,0.0,0.0,87,0.00,,,0.00,WUHU216HW,2013-01-15 15:55:00,
2013-01-15 08:00:00,36.0,32.4,30.29,WNW,293,0.0,0.0,87,0.00,,,0.00,WUHU216HW,2013-01-15 16:00:00,
2013-01-15 08:05:00,35.8,32.2,30.29,West,270,0.0,0.0,87,0.00,,,0.00,WUHU216HW,2013-01-15 16:05:00,
2013-01-15 08:10:00,35.8,32.2,30.29,NNW,338,0.0,0.2,87,0.00,,,0.00,WUHU216HW,2013-01-15 16:10:00,
2013-01-15 08:15:00,35.6,31.8,30.30,NNW,338,0.0,0.2,86,0.00,,,0.00,WUHU216HW,2013-01-15 16:15:00,
2013-01-15 08:20:00,35.6,31.8,30.30,NNW,338,0.0,0.0,86,0.00,,,0.00,WUHU216HW,2013-01-15 16:20:00,
2013-01-15 08:25:00,35.6,31.8,30.30,NNW,338,0.0,0.0,86,0.00,,,0.00,WUHU216HW,2013-01-15 16:25:00,
2013-01-15 08:59:00,36.9,33.3,30.31,South,180,0.7,0.7,87,0.00,,,0.00,WUHU216HW,2013-01-15 16:59:00,
2013-01-15 09:00:00,36.9,33.3,30.31,South,180,0.7,0.7,87,0.00,,,0.00,WUHU216HW,2013-01-15 17:00:00,
2013-01-15 09:05:00,36.9,33.3,30.31,South,180,0.7,0.7,87,0.00,,,0.00,WUHU216HW,2013-01-15 17:05:00,
2013-01-15 10:00:00,59.0,46.8,30.31,North,0,1.1,1.1,64,0.00,,,0.00,WUHU216HW,2013-01-15 18:00:00,
2013-01-15 10:05:00,59.2,45.8,30.31,NNE,32,0.8,2.0,61,0.00,,,0.00,WUHU216HW,2013-01-15 18:05:00,
2013-01-15 10:10:00,57.2,42.1,30.31,North,359,0.8,2.0,57,0.00,,,0.00,WUHU216HW,2013-01-15 18:10:00,
2013-01-15 10:15:00,54.4,39.9,30.31,NW,322,1.6,2.2,58,0.00,,,0.00,WUHU216HW,2013-01-15 18:15:00,
2013-01-15 10:20:00,53.5,40.0,30.31,NNW,338,1.7,2.2,60,0.00,,,0.00,WUHU216HW,2013-01-15 18:20:00,
2013-01-15 10:25:00,54.7,41.5,30.32,NNE,23,1.1,2.0,61,0.00,,,0.00,WUHU216HW,2013-01-15 18:25:00,
2013-01-15 10:30:00,57.2,43.1,30.32,NNE,23,1.0,2.5,59,0.00,,,0.00,WUHU216HW,2013-01-15 18:30:00,
2013-01-15 10:35:00,60.1,44.8,30.32,North,0,1.1,2.5,57,0.00,,,0.00,WUHU216HW,2013-01-15 18:35:00,
2013-01-15 10:40:00,61.7,43.9,30.32,NNE,23,1.8,2.7,52,0.00,,,0.00,WUHU216HW,2013-01-15 18:40:00,
2013-01-15 10:45:00,62.3,43.4,30.32,North,0,2.5,2.7,50,0.00,,,0.00,WUHU216HW,2013-01-15 18:45:00,
2013-01-15 10:50:00,62.6,43.2,30.32,NNE,21,1.1,2.7,49,0.00,,,0.00,WUHU216HW,2013-01-15 18:50:00,
2013-01-15 10:55:00,63.2,43.1,30.32,WNW,293,1.1,2.5,48,0.00,,,0.00,WUHU216HW,2013-01-15 18:55:00,
2013-01-15 11:00:00,63.4,42.1,30.32,North,349,2.6,3.1,46,0.00,,,0.00,WUHU216HW,2013-01-15 19:00:00,
2013-01-15 11:05:00,64.1,43.3,30.32,North,0,2.7,3.1,47,0.00,,,0.00,WUHU216HW,2013-01-15 19:05:00,
2013-01-15 11:10:00,63.9,42.0,30.32,NE,45,3.6,3.6,45,0.00,,,0.00,WUHU216HW,2013-01-15 19:10:00,
2013-01-15 11:15:00,64.6,42.0,30.32,NNE,20,2.7,3.6,44,0.00,,,0.00,WUHU216HW,2013-01-15 19:15:00,
2013-01-15 11:20:00,65.0,42.4,30.32,North,0,2.2,3.6,44,0.00,,,0.00,WUHU216HW,2013-01-15 19:20:00,
2013-01-15 11:25:00,65.3,42.2,30.32,NE,45,2.9,2.9,43,0.00,,,0.00,WUHU216HW,2013-01-15 19:25:00,
2013-01-15 11:30:00,65.7,42.5,30.32,NNE,23,1.6,2.9,43,0.00,,,0.00,WUHU216HW,2013-01-15 19:30:00,
2013-01-15 11:35:00,65.9,41.5,30.32,North,0,0.0,2.9,41,0.00,,,0.00,WUHU216HW,2013-01-15 19:35:00,
2013-01-15 11:40:00,65.9,41.5,30.32,North,0,0.0,1.6,41,0.00,,,0.00,WUHU216HW,2013-01-15 19:40:00,
2013-01-15 11:45:00,66.4,41.4,30.31,North,0,0.0,0.0,40,0.00,,,0.00,WUHU216HW,2013-01-15 19:45:00,
2013-01-15 11:50:00,66.4,41.4,30.31,North,0,0.0,0.0,40,0.00,,,0.00,WUHU216HW,2013-01-15 19:50:00,
2013-01-15 11:55:00,66.4,41.4,30.31,North,0,0.0,0.0,40,0.00,,,0.00,WUHU216HW,2013-01-15 19:55:00,
2013-01-15 12:00:00,66.6,40.9,30.31,North,0,0.0,0.0,39,0.00,,,0.00,WUHU216HW,2013-01-15 20:00:00,
2013-01-15 12:05:00,66.4,40.7,30.31,North,0,0.0,0.0,39,0.00,,,0.00,WUHU216HW,2013-01-15 20:05:00,
2013-01-15 12:10:00,66.6,40.2,30.30,North,0,0.0,0.0,38,0.00,,,0.00,WUHU216HW,2013-01-15 20:10:00,
2013-01-15 12:15:00,66.4,40.0,30.31,North,0,0.0,0.0,38,0.00,,,0.00,WUHU216HW,2013-01-15 20:15:00,
2013-01-15 12:20:00,65.7,39.3,30.31,North,0,0.0,0.0,38,0.00,,,0.00,WUHU216HW,2013-01-15 20:20:00,
2013-01-15 12:25:00,64.6,38.4,30.31,North,0,0.0,0.0,38,0.00,,,0.00,WUHU216HW,2013-01-15 20:25:00,
2013-01-15 12:30:00,62.6,37.3,30.31,North,0,0.0,0.0,39,0.00,,,0.00,WUHU216HW,2013-01-15 20:30:00,
2013-01-15 12:35:00,61.2,37.3,30.31,North,0,0.0,0.0,41,0.00,,,0.00,WUHU216HW,2013-01-15 20:35:00,
2013-01-15 12:40:00,59.8,37.1,30.31,North,0,0.0,0.0,43,0.00,,,0.00,WUHU216HW,2013-01-15 20:40:00,
2013-01-15 12:45:00,58.7,36.7,30.30,North,0,0.0,0.0,44,0.00,,,0.00,WUHU216HW,2013-01-15 20:45:00,
2013-01-15 12:50:00,58.1,36.8,30.31,North,3,1.9,2.0,45,0.00,,,0.00,WUHU216HW,2013-01-15 20:50:00,
2013-01-15 12:55:00,58.0,37.3,30.31,West,270,2.0,2.0,46,0.00,,,0.00,WUHU216HW,2013-01-15 20:55:00,
2013-01-15 13:00:00,58.0,36.6,30.30,North,0,0.0,2.0,45,0.00,,,0.00,WUHU216HW,2013-01-15 21:00:00,
2013-01-15 13:02:00,58.0,36.6,30.31,North,0,0.0,0.0,45,0.00,,,0.00,WUHU216HW,2013-01-15 21:02:00,
2013-01-15 13:05:00,58.0,36.6,30.31,North,0,0.0,2.0,45,0.00,,,0.00,WUHU216HW,2013-01-15 21:05:00,
2013-01-15 13:10:00,58.0,36.6,30.31,North,0,0.0,0.0,45,0.00,,,0.00,WUHU216HW,2013-01-15 21:10:00,
2013-01-15 14:00:00,49.3,33.8,30.31,North,0,0.0,0.0,55,0.00,,,0.00,WUHU216HW,2013-01-15 22:00:00,
2013-01-15 14:05:00,49.3,33.8,30.31,North,0,0.0,0.0,55,0.00,,,0.00,WUHU216HW,2013-01-15 22:05:00,
2013-01-15 15:00:00,45.0,32.4,30.31,NNE,23,1.1,1.1,61,0.00,,,0.00,WUHU216HW,2013-01-15 23:00:00,
2013-01-15 15:05:00,45.0,32.4,30.31,NNE,23,1.1,1.1,61,0.00,,,0.00,WUHU216HW,2013-01-15 23:05:00,
2013-01-15 16:00:00,42.8,31.9,30.31,NNE,23,0.0,0.0,65,0.00,,,0.00,WUHU216HW,2013-01-16 00:00:00,
2013-01-15 16:05:00,42.8,31.9,30.31,NNE,23,0.0,0.0,65,0.00,,,0.00,WUHU216HW,2013-01-16 00:05:00,
2013-01-15 17:00:00,40.3,30.6,30.30,NNW,338,0.0,0.0,68,0.00,,,0.00,WUHU216HW,2013-01-16 01:00:00,
2013-01-15 18:00:00,38.5,30.2,30.30,North,0,0.4,0.4,72,0.00,,,0.00,WUHU216HW,2013-01-16 02:00:00,
2013-01-15 19:00:00,37.8,30.2,30.30,NNW,338,0.0,0.0,74,0.00,,,0.00,WUHU216HW,2013-01-16 03:00:00,
2013-01-15 20:00:00,37.1,30.3,30.30,North,0,0.0,0.0,76,0.00,,,0.00,WUHU216HW,2013-01-16 04:00:00,
2013-01-15 20:05:00,37.1,30.3,30.30,North,0,0.0,0.0,76,0.00,,,0.00,WUHU216HW,2013-01-16 04:05:00,
2013-01-15 21:00:00,36.7,30.5,30.30,North,0,0.2,0.2,78,0.00,,,0.00,WUHU216HW,2013-01-16 05:00:00,
2013-01-15 21:02:00,36.7,30.5,30.30,North,0,0.2,0.2,78,0.00,,,0.00,WUHU216HW,2013-01-16 05:02:00,
2013-01-15 21:03:00,36.7,30.5,30.30,North,0,0.2,0.2,78,0.00,,,0.00,WUHU216HW,2013-01-16 05:03:00,
2013-01-15 21:08:00,36.7,30.5,30.30,North,0,0.2,0.2,78,0.00,,,0.00,WUHU216HW,2013-01-16 05:08:00,
2013-01-15 21:17:00,36.5,30.3,30.30,North,0,0.7,0.7,78,0.00,,,0.00,WUHU216HW,2013-01-16 05:17:00,
2013-01-15 21:22:00,36.5,30.3,30.30,North,0,0.0,0.7,78,0.00,,,0.00,WUHU216HW,2013-01-16 05:22:00,
2013-01-15 21:27:00,36.4,30.4,30.30,North,0,0.0,0.7,79,0.00,,,0.00,WUHU216HW,2013-01-16 05:27:00,
2013-01-15 21:32:00,36.2,30.2,30.30,North,0,0.0,0.0,79,0.00,,,0.00,WUHU216HW,2013-01-16 05:32:00,
2013-01-15 21:37:00,36.0,30.1,30.30,NNE,23,0.4,0.4,79,0.00,,,0.00,WUHU216HW,2013-01-16 05:37:00,
2013-01-15 21:41:00,36.0,30.1,30.30,NNE,23,0.0,0.0,79,0.00,,,0.00,WUHU216HW,2013-01-16 05:41:00,
2013-01-15 21:42:00,36.0,30.1,30.30,NNE,23,0.0,0.4,79,0.00,,,0.00,WUHU216HW,2013-01-16 05:42:00,
2013-01-15 21:47:00,36.0,30.1,30.30,NNE,23,0.0,0.4,79,0.00,,,0.00,WUHU216HW,2013-01-16 05:47:00,
2013-01-15 22:00:00,35.8,30.2,30.29,NNE,23,0.0,0.0,80,0.00,,,0.00,WUHU216HW,2013-01-16 06:00:00,
2013-01-15 22:05:00,35.8,30.2,30.29,NNE,23,0.0,0.0,80,0.00,,,0.00,WUHU216HW,2013-01-16 06:05:00,
2013-01-15 23:00:00,35.3,29.7,30.29,North,0,0.0,0.0,80,0.00,,,0.00,WUHU216HW,2013-01-16 07:00:00,
2013-01-15 23:05:00,35.3,29.7,30.29,North,0,0.0,0.0,80,0.00,,,0.00,WUHU216HW,2013-01-16 07:05:00,